sensor_id;sensor_type;location;lat;lon;timestamp;pressure;altitude;pressure_sealevel;temperature;humidity
24045;BME280;26257;49.442;8.422;2023-03-22T00:00:34;100246.53;;;12.48;100.00
24045;BME280;26257;49.442;8.422;2023-03-22T00:03:01;100249.16;;;12.49;100.00
24045;BME280;26257;49.442;8.422;2023-03-22T00:05:26;100254.47;;;12.55;100.00
24045;BME280;26257;49.442;8.422;2023-03-22T00:07:54;100248.28;;;12.59;100.00
24045;BME280;26257;49.442;8.422;2023-03-22T00:10:23;100248.28;;;12.65;100.00
24045;BME280;26257;49.442;8.422;2023-03-22T00:12:50;100242.09;;;12.57;100.00
24045;BME280;26257;49.442;8.422;2023-03-22T00:15:16;100245.66;;;12.53;100.00
24045;BME280;26257;49.442;8.422;2023-03-22T00:17:41;100240.31;;;12.59;100.00
24045;BME280;26257;49.442;8.422;2023-03-22T00:20:09;100243.88;;;12.58;100.00
24045;BME280;26257;49.442;8.422;2023-03-22T00:22:36;100252.69;;;12.60;100.00
24045;BME280;26257;49.442;8.422;2023-03-22T00:25:02;100244.75;;;12.57;100.00
24045;BME280;26257;49.442;8.422;2023-03-22T00:27:28;100232.41;;;12.56;100.00
24045;BME280;26257;49.442;8.422;2023-03-22T00:29:53;100236.81;;;12.63;100.00
24045;BME280;26257;49.442;8.422;2023-03-22T00:32:19;100235.03;;;12.71;100.00
24045;BME280;26257;49.442;8.422;2023-03-22T00:34:44;100238.53;;;12.79;100.00
24045;BME280;26257;49.442;8.422;2023-03-22T00:37:10;100227.88;;;13.00;100.00
24045;BME280;26257;49.442;8.422;2023-03-22T00:39:35;100233.19;;;12.88;100.00
24045;BME280;26257;49.442;8.422;2023-03-22T00:42:03;100235.03;;;12.77;100.00
24045;BME280;26257;49.442;8.422;2023-03-22T00:44:28;100229.69;;;12.80;100.00
24045;BME280;26257;49.442;8.422;2023-03-22T00:46:54;100210.19;;;12.93;100.00
24045;BME280;26257;49.442;8.422;2023-03-22T00:49:19;100217.28;;;12.97;100.00
24045;BME280;26257;49.442;8.422;2023-03-22T00:51:46;100215.56;;;12.72;100.00
24045;BME280;26257;49.442;8.422;2023-03-22T00:54:11;100209.41;;;12.57;100.00
24045;BME280;26257;49.442;8.422;2023-03-22T00:56:36;100208.56;;;12.56;100.00
24045;BME280;26257;49.442;8.422;2023-03-22T00:59:03;100201.47;;;12.55;100.00
24045;BME280;26257;49.442;8.422;2023-03-22T01:01:28;100199.72;;;12.62;100.00
24045;BME280;26257;49.442;8.422;2023-03-22T01:03:54;100203.22;;;12.62;100.00
24045;BME280;26257;49.442;8.422;2023-03-22T01:06:19;100204.13;;;12.57;100.00
24045;BME280;26257;49.442;8.422;2023-03-22T01:08:45;100211.19;;;12.52;100.00
24045;BME280;26257;49.442;8.422;2023-03-22T01:11:10;100202.38;;;12.48;100.00
24045;BME280;26257;49.442;8.422;2023-03-22T01:13:36;100197.97;;;12.49;100.00
24045;BME280;26257;49.442;8.422;2023-03-22T01:16:03;100189.13;;;12.48;100.00
24045;BME280;26257;49.442;8.422;2023-03-22T01:18:29;100191.78;;;12.62;100.00
24045;BME280;26257;49.442;8.422;2023-03-22T01:20:54;100184.66;;;12.65;100.00
24045;BME280;26257;49.442;8.422;2023-03-22T01:23:20;100186.44;;;12.57;100.00
24045;BME280;26257;49.442;8.422;2023-03-22T01:25:45;100189.13;;;12.42;100.00
24045;BME280;26257;49.442;8.422;2023-03-22T01:28:11;100189.16;;;12.34;100.00
24045;BME280;26257;49.442;8.422;2023-03-22T01:30:38;100187.41;;;12.35;100.00
24045;BME280;26257;49.442;8.422;2023-03-22T01:33:04;100190.91;;;12.34;100.00
24045;BME280;26257;49.442;8.422;2023-03-22T01:35:32;100183.00;;;12.25;100.00
24045;BME280;26257;49.442;8.422;2023-03-22T01:37:58;100198.00;;;12.24;100.00
24045;BME280;26257;49.442;8.422;2023-03-22T01:40:23;100185.66;;;12.25;100.00
24045;BME280;26257;49.442;8.422;2023-03-22T01:42:52;100175.03;;;12.20;100.00
24045;BME280;26257;49.442;8.422;2023-03-22T01:48:06;100176.78;;;12.29;100.00
24045;BME280;26257;49.442;8.422;2023-03-22T01:50:34;100167.97;;;12.18;100.00
24045;BME280;26257;49.442;8.422;2023-03-22T01:53:02;100182.09;;;12.38;100.00
24045;BME280;26257;49.442;8.422;2023-03-22T01:55:30;100171.41;;;12.62;100.00
24045;BME280;26257;49.442;8.422;2023-03-22T01:57:58;100178.50;;;12.63;100.00
24045;BME280;26257;49.442;8.422;2023-03-22T02:00:25;100167.94;;;12.51;100.00
24045;BME280;26257;49.442;8.422;2023-03-22T02:02:51;100173.22;;;12.54;100.00
24045;BME280;26257;49.442;8.422;2023-03-22T02:05:18;100171.47;;;12.53;100.00
24045;BME280;26257;49.442;8.422;2023-03-22T02:07:44;100168.78;;;12.58;100.00
24045;BME280;26257;49.442;8.422;2023-03-22T02:10:15;100167.91;;;12.60;100.00
24045;BME280;26257;49.442;8.422;2023-03-22T02:15:42;100168.72;;;12.83;100.00
24045;BME280;26257;49.442;8.422;2023-03-22T02:18:37;100162.53;;;12.84;100.00
24045;BME280;26257;49.442;8.422;2023-03-22T02:40:43;100152.75;;;12.97;100.00
24045;BME280;26257;49.442;8.422;2023-03-22T02:45:50;100146.53;;;13.06;100.00
24045;BME280;26257;49.442;8.422;2023-03-22T02:50:52;100139.41;;;13.17;100.00
24045;BME280;26257;49.442;8.422;2023-03-22T02:53:43;100134.19;;;13.08;100.00
24045;BME280;26257;49.442;8.422;2023-03-22T02:56:13;100143.03;;;13.00;100.00
24045;BME280;26257;49.442;8.422;2023-03-22T02:58:53;100131.50;;;13.06;100.00
24045;BME280;26257;49.442;8.422;2023-03-22T03:01:27;100128.91;;;12.92;100.00
24045;BME280;26257;49.442;8.422;2023-03-22T03:04:00;100125.31;;;13.04;100.00
24045;BME280;26257;49.442;8.422;2023-03-22T03:06:29;100126.22;;;13.03;100.00
24045;BME280;26257;49.442;8.422;2023-03-22T03:08:57;100119.16;;;12.99;100.00
24045;BME280;26257;49.442;8.422;2023-03-22T03:11:29;100128.84;;;13.01;100.00
24045;BME280;26257;49.442;8.422;2023-03-22T03:13:55;100120.03;;;12.99;100.00
24045;BME280;26257;49.442;8.422;2023-03-22T03:16:23;100124.47;;;13.00;100.00
24045;BME280;26257;49.442;8.422;2023-03-22T03:19:12;100134.22;;;12.92;100.00
24045;BME280;26257;49.442;8.422;2023-03-22T03:22:02;100133.34;;;12.83;100.00
24045;BME280;26257;49.442;8.422;2023-03-22T03:24:48;100128.03;;;12.89;100.00
24045;BME280;26257;49.442;8.422;2023-03-22T03:27:25;100134.31;;;12.68;100.00
24045;BME280;26257;49.442;8.422;2023-03-22T03:30:00;100135.16;;;12.75;100.00
24045;BME280;26257;49.442;8.422;2023-03-22T03:32:34;100135.19;;;12.73;100.00
24045;BME280;26257;49.442;8.422;2023-03-22T03:35:13;100130.78;;;12.66;100.00
24045;BME280;26257;49.442;8.422;2023-03-22T03:40:22;100143.19;;;12.52;100.00
24045;BME280;26257;49.442;8.422;2023-03-22T03:42:52;100137.03;;;12.47;100.00
24045;BME280;26257;49.442;8.422;2023-03-22T03:45:18;100130.84;;;12.48;100.00
24045;BME280;26257;49.442;8.422;2023-03-22T03:47:47;100127.31;;;12.38;100.00
24045;BME280;26257;49.442;8.422;2023-03-22T03:50:19;100143.22;;;12.43;100.00
24045;BME280;26257;49.442;8.422;2023-03-22T03:52:45;100135.28;;;12.43;100.00
24045;BME280;26257;49.442;8.422;2023-03-22T03:55:11;100132.63;;;12.40;100.00
24045;BME280;26257;49.442;8.422;2023-03-22T03:57:36;100136.19;;;12.27;100.00
24045;BME280;26257;49.442;8.422;2023-03-22T04:00:03;100130.91;;;12.21;100.00
24045;BME280;26257;49.442;8.422;2023-03-22T04:02:28;100130.03;;;12.13;100.00
24045;BME280;26257;49.442;8.422;2023-03-22T04:04:54;100130.03;;;12.13;100.00
24045;BME280;26257;49.442;8.422;2023-03-22T04:07:19;100124.75;;;11.99;100.00
24045;BME280;26257;49.442;8.422;2023-03-22T04:09:45;100134.47;;;11.96;100.00
24045;BME280;26257;49.442;8.422;2023-03-22T04:12:10;100124.75;;;12.02;100.00
24045;BME280;26257;49.442;8.422;2023-03-22T04:14:36;100123.91;;;11.81;100.00
24045;BME280;26257;49.442;8.422;2023-03-22T04:17:02;100119.47;;;11.69;100.00
24045;BME280;26257;49.442;8.422;2023-03-22T04:19:27;100115.94;;;11.74;100.00
24045;BME280;26257;49.442;8.422;2023-03-22T04:21:53;100119.44;;;11.67;100.00
24045;BME280;26257;49.442;8.422;2023-03-22T04:24:20;100111.50;;;11.61;100.00
24045;BME280;26257;49.442;8.422;2023-03-22T04:26:46;100116.78;;;11.46;100.00
24045;BME280;26257;49.442;8.422;2023-03-22T04:29:12;100109.75;;;11.51;100.00
24045;BME280;26257;49.442;8.422;2023-03-22T04:31:37;100105.31;;;11.43;100.00
24045;BME280;26257;49.442;8.422;2023-03-22T04:34:04;100099.16;;;11.48;100.00
24045;BME280;26257;49.442;8.422;2023-03-22T04:36:34;100110.59;;;11.37;100.00
24045;BME280;26257;49.442;8.422;2023-03-22T04:39:05;100101.78;;;11.30;100.00
24045;BME280;26257;49.442;8.422;2023-03-22T04:41:32;100101.78;;;11.23;100.00
24045;BME280;26257;49.442;8.422;2023-03-22T04:43:58;100102.63;;;11.17;100.00
24045;BME280;26257;49.442;8.422;2023-03-22T04:46:28;100104.38;;;11.21;100.00
24045;BME280;26257;49.442;8.422;2023-03-22T04:48:54;100100.84;;;11.16;100.00
24045;BME280;26257;49.442;8.422;2023-03-22T04:51:20;100099.09;;;11.09;100.00
24045;BME280;26257;49.442;8.422;2023-03-22T04:53:45;100106.13;;;11.01;100.00
24045;BME280;26257;49.442;8.422;2023-03-22T04:56:12;100094.66;;;11.00;100.00
24045;BME280;26257;49.442;8.422;2023-03-22T04:58:39;100106.09;;;10.98;100.00
24045;BME280;26257;49.442;8.422;2023-03-22T05:01:05;100104.31;;;10.91;100.00
24045;BME280;26257;49.442;8.422;2023-03-22T05:03:32;100109.59;;;10.88;100.00
24045;BME280;26257;49.442;8.422;2023-03-22T05:05:59;100112.22;;;10.79;100.00
24045;BME280;26257;49.442;8.422;2023-03-22T05:08:28;100109.56;;;10.77;100.00
24045;BME280;26257;49.442;8.422;2023-03-22T05:10:56;100118.41;;;10.84;100.00
24045;BME280;26257;49.442;8.422;2023-03-22T05:13:24;100114.84;;;10.76;100.00
24045;BME280;26257;49.442;8.422;2023-03-22T05:15:50;100114.84;;;10.76;100.00
24045;BME280;26257;49.442;8.422;2023-03-22T05:18:17;100120.13;;;10.73;100.00
24045;BME280;26257;49.442;8.422;2023-03-22T05:20:45;100118.34;;;10.72;100.00
24045;BME280;26257;49.442;8.422;2023-03-22T05:23:12;100112.16;;;10.70;100.00
24045;BME280;26257;49.442;8.422;2023-03-22T05:25:38;100116.59;;;10.74;100.00
24045;BME280;26257;49.442;8.422;2023-03-22T05:28:05;100115.75;;;10.76;100.00
24045;BME280;26257;49.442;8.422;2023-03-22T05:30:31;100118.34;;;10.66;100.00
24045;BME280;26257;49.442;8.422;2023-03-22T05:33:03;100120.06;;;10.61;100.00
24045;BME280;26257;49.442;8.422;2023-03-22T05:35:30;100130.56;;;10.48;100.00
24045;BME280;26257;49.442;8.422;2023-03-22T05:37:56;100120.00;;;10.48;100.00
24045;BME280;26257;49.442;8.422;2023-03-22T05:40:22;100134.94;;;10.46;100.00
24045;BME280;26257;49.442;8.422;2023-03-22T05:42:48;100127.13;;;10.68;100.00
24045;BME280;26257;49.442;8.422;2023-03-22T05:45:13;100130.56;;;10.48;100.00
24045;BME280;26257;49.442;8.422;2023-03-22T05:47:39;100125.34;;;10.61;100.00
24045;BME280;26257;49.442;8.422;2023-03-22T05:50:09;100134.97;;;10.48;100.00
24045;BME280;26257;49.442;8.422;2023-03-22T05:52:35;100132.38;;;10.56;100.00
24045;BME280;26257;49.442;8.422;2023-03-22T05:55:01;100139.41;;;10.57;100.00
24045;BME280;26257;49.442;8.422;2023-03-22T05:57:27;100125.31;;;10.56;100.00
24045;BME280;26257;49.442;8.422;2023-03-22T05:59:55;100139.41;;;10.50;100.00
24045;BME280;26257;49.442;8.422;2023-03-22T06:02:22;100135.06;;;10.63;100.00
24045;BME280;26257;49.442;8.422;2023-03-22T06:04:48;100140.31;;;10.56;100.00
24045;BME280;26257;49.442;8.422;2023-03-22T06:07:15;100136.78;;;10.61;100.00
24045;BME280;26257;49.442;8.422;2023-03-22T06:09:41;100127.09;;;10.62;100.00
24045;BME280;26257;49.442;8.422;2023-03-22T06:12:16;100139.47;;;10.69;100.00
24045;BME280;26257;49.442;8.422;2023-03-22T06:14:48;100137.72;;;10.77;100.00
24045;BME280;26257;49.442;8.422;2023-03-22T06:17:14;100141.31;;;10.82;100.00
24045;BME280;26257;49.442;8.422;2023-03-22T06:19:40;100141.31;;;10.95;100.00
24045;BME280;26257;49.442;8.422;2023-03-22T06:22:05;100146.66;;;11.00;100.00
24045;BME280;26257;49.442;8.422;2023-03-22T06:24:30;100137.84;;;11.07;100.00
24045;BME280;26257;49.442;8.422;2023-03-22T06:26:56;100144.91;;;11.09;100.00
24045;BME280;26257;49.442;8.422;2023-03-22T06:29:21;100126.41;;;11.11;100.00
24045;BME280;26257;49.442;8.422;2023-03-22T06:31:48;100118.47;;;11.09;100.00
24045;BME280;26257;49.442;8.422;2023-03-22T06:34:13;100127.34;;;11.31;100.00
24045;BME280;26257;49.442;8.422;2023-03-22T06:36:39;100115.84;;;11.22;100.00
24045;BME280;26257;49.442;8.422;2023-03-22T06:39:06;100122.09;;;11.49;100.00
24045;BME280;26257;49.442;8.422;2023-03-22T06:41:32;100124.72;;;11.48;100.00
24045;BME280;26257;49.442;8.422;2023-03-22T06:43:57;100122.97;;;11.59;100.00
24045;BME280;26257;49.442;8.422;2023-03-22T06:46:23;100123.00;;;11.75;100.00
24045;BME280;26257;49.442;8.422;2023-03-22T06:48:48;100122.06;;;11.58;100.00
24045;BME280;26257;49.442;8.422;2023-03-22T06:51:13;100120.31;;;11.63;100.00
24045;BME280;26257;49.442;8.422;2023-03-22T06:53:40;100127.41;;;11.80;100.00
24045;BME280;26257;49.442;8.422;2023-03-22T06:56:06;100130.06;;;11.89;100.00
24045;BME280;26257;49.442;8.422;2023-03-22T06:58:32;100135.34;;;12.02;100.00
24045;BME280;26257;49.442;8.422;2023-03-22T07:00:57;100136.19;;;12.21;100.00
24045;BME280;26257;49.442;8.422;2023-03-22T07:03:22;100138.84;;;12.27;100.00
24045;BME280;26257;49.442;8.422;2023-03-22T07:05:48;100137.94;;;12.28;100.00
24045;BME280;26257;49.442;8.422;2023-03-22T07:08:14;100143.25;;;12.28;100.00
24045;BME280;26257;49.442;8.422;2023-03-22T07:10:41;100141.47;;;12.36;100.00
24045;BME280;26257;49.442;8.422;2023-03-22T07:13:08;100137.00;;;12.58;100.00
24045;BME280;26257;49.442;8.422;2023-03-22T07:15:33;100144.03;;;12.65;100.00
24045;BME280;26257;49.442;8.422;2023-03-22T07:18:00;100144.84;;;12.80;100.00
24045;BME280;26257;49.442;8.422;2023-03-22T07:20:26;100143.19;;;12.64;100.00
24045;BME280;26257;49.442;8.422;2023-03-22T07:22:52;100135.97;;;12.95;100.00
24045;BME280;26257;49.442;8.422;2023-03-22T07:25:18;100145.72;;;12.88;100.00
24045;BME280;26257;49.442;8.422;2023-03-22T07:27:44;100147.44;;;13.08;100.00
24045;BME280;26257;49.442;8.422;2023-03-22T07:30:10;100147.38;;;13.17;100.00
24045;BME280;26257;49.442;8.422;2023-03-22T07:32:38;100149.13;;;13.27;100.00
24045;BME280;26257;49.442;8.422;2023-03-22T07:35:05;100139.41;;;13.20;100.00
24045;BME280;26257;49.442;8.422;2023-03-22T07:37:31;100146.47;;;13.21;100.00
24045;BME280;26257;49.442;8.422;2023-03-22T07:39:56;100142.09;;;13.15;100.00
24045;BME280;26257;49.442;8.422;2023-03-22T07:42:21;100135.88;;;13.21;100.00
24045;BME280;26257;49.442;8.422;2023-03-22T07:44:47;100137.59;;;13.25;100.00
24045;BME280;26257;49.442;8.422;2023-03-22T07:47:13;100148.09;;;13.43;100.00
24045;BME280;26257;49.442;8.422;2023-03-22T07:49:39;100137.31;;;13.67;100.00
24045;BME280;26257;49.442;8.422;2023-03-22T07:52:05;100149.72;;;13.68;100.00
24045;BME280;26257;49.442;8.422;2023-03-22T07:54:30;100131.97;;;13.72;100.00
24045;BME280;26257;49.442;8.422;2023-03-22T07:56:57;100127.34;;;13.95;100.00
24045;BME280;26257;49.442;8.422;2023-03-22T07:59:22;100129.06;;;14.05;100.00
24045;BME280;26257;49.442;8.422;2023-03-22T08:32:17;100128.16;;;14.90;100.00
24045;BME280;26257;49.442;8.422;2023-03-22T08:34:43;100124.63;;;14.86;100.00
24045;BME280;26257;49.442;8.422;2023-03-22T08:37:09;100120.03;;;15.00;100.00
24045;BME280;26257;49.442;8.422;2023-03-22T08:39:35;100115.53;;;15.05;100.00
24045;BME280;26257;49.442;8.422;2023-03-22T08:42:02;100105.25;;;15.42;100.00
24045;BME280;26257;49.442;8.422;2023-03-22T08:44:27;100109.31;;;15.69;100.00
24045;BME280;26257;49.442;8.422;2023-03-22T08:46:53;100112.38;;;15.96;100.00
24045;BME280;26257;49.442;8.422;2023-03-22T08:49:18;100107.94;;;15.97;100.00
24045;BME280;26257;49.442;8.422;2023-03-22T08:51:44;100098.34;;;15.87;96.88
24045;BME280;26257;49.442;8.422;2023-03-22T08:54:10;100108.16;;;15.85;95.68
24045;BME280;26257;49.442;8.422;2023-03-22T08:56:35;100102.66;;;15.94;94.77
24045;BME280;26257;49.442;8.422;2023-03-22T08:59:07;100103.84;;;15.76;93.52
24045;BME280;26257;49.442;8.422;2023-03-22T09:01:34;100093.72;;;15.98;92.57
24045;BME280;26257;49.442;8.422;2023-03-22T09:04:00;100106.22;;;15.93;92.89
24045;BME280;26257;49.442;8.422;2023-03-22T09:06:25;100106.72;;;16.16;90.33
24045;BME280;26257;49.442;8.422;2023-03-22T09:08:51;100090.78;;;16.13;88.17
24045;BME280;26257;49.442;8.422;2023-03-22T09:11:18;100081.84;;;16.14;88.44
24045;BME280;26257;49.442;8.422;2023-03-22T09:13:43;100097.84;;;16.14;88.85
24045;BME280;26257;49.442;8.422;2023-03-22T09:16:09;100091.75;;;16.06;90.21
24045;BME280;26257;49.442;8.422;2023-03-22T09:18:36;100084.34;;;16.23;89.21
24045;BME280;26257;49.442;8.422;2023-03-22T09:21:03;100081.06;;;16.56;85.98
24045;BME280;26257;49.442;8.422;2023-03-22T09:23:29;100079.28;;;16.11;83.27
24045;BME280;26257;49.442;8.422;2023-03-22T09:25:58;100084.16;;;16.32;85.68
24045;BME280;26257;49.442;8.422;2023-03-22T09:28:24;100067.81;;;16.52;84.98
24045;BME280;26257;49.442;8.422;2023-03-22T09:30:50;100066.19;;;16.88;82.71
24045;BME280;26257;49.442;8.422;2023-03-22T09:33:15;100063.56;;;16.85;79.89
24045;BME280;26257;49.442;8.422;2023-03-22T09:35:42;100060.91;;;16.86;79.64
24045;BME280;26257;49.442;8.422;2023-03-22T09:38:08;100058.34;;;17.18;78.35
24045;BME280;26257;49.442;8.422;2023-03-22T09:40:36;100065.81;;;17.04;77.51
24045;BME280;26257;49.442;8.422;2023-03-22T09:43:06;100065.34;;;16.86;78.75
24045;BME280;26257;49.442;8.422;2023-03-22T09:45:36;100068.19;;;16.77;78.82
24045;BME280;26257;49.442;8.422;2023-03-22T09:50:49;100059.78;;;16.95;75.36
24045;BME280;26257;49.442;8.422;2023-03-22T09:53:16;100062.69;;;16.86;75.78
24045;BME280;26257;49.442;8.422;2023-03-22T09:58:32;100053.63;;;16.93;78.75
24045;BME280;26257;49.442;8.422;2023-03-22T10:09:55;100020.03;;;17.21;75.45
24045;BME280;26257;49.442;8.422;2023-03-22T10:15:51;100016.31;;;18.92;66.38
24045;BME280;26257;49.442;8.422;2023-03-22T10:18:28;100013.38;;;18.40;66.56
24045;BME280;26257;49.442;8.422;2023-03-22T10:21:04;100019.56;;;19.02;64.20
24045;BME280;26257;49.442;8.422;2023-03-22T10:23:52;100021.31;;;19.58;61.89
24045;BME280;26257;49.442;8.422;2023-03-22T10:26:29;100004.28;;;20.60;57.23
24045;BME280;26257;49.442;8.422;2023-03-22T10:32:17;100004.47;;;20.06;57.80
24045;BME280;26257;49.442;8.422;2023-03-22T10:34:44;99997.56;;;20.71;54.21
24045;BME280;26257;49.442;8.422;2023-03-22T10:37:19;99996.44;;;21.23;54.26
24045;BME280;26257;49.442;8.422;2023-03-22T10:39:55;99981.63;;;20.90;52.95
24045;BME280;26257;49.442;8.422;2023-03-22T10:42:29;99998.34;;;21.63;51.40
24045;BME280;26257;49.442;8.422;2023-03-22T10:45:14;100004.41;;;21.25;51.51
24045;BME280;26257;49.442;8.422;2023-03-22T10:48:10;100000.38;;;21.36;51.50
24045;BME280;26257;49.442;8.422;2023-03-22T10:50:47;99989.44;;;23.01;48.04
24045;BME280;26257;49.442;8.422;2023-03-22T10:53:43;99987.53;;;21.65;48.64
24045;BME280;26257;49.442;8.422;2023-03-22T10:56:15;99993.03;;;21.62;49.57
24045;BME280;26257;49.442;8.422;2023-03-22T10:58:44;99987.25;;;21.50;48.89
24045;BME280;26257;49.442;8.422;2023-03-22T11:01:23;100000.47;;;21.77;49.24
24045;BME280;26257;49.442;8.422;2023-03-22T11:03:51;99992.16;;;20.96;50.32
24045;BME280;26257;49.442;8.422;2023-03-22T11:06:25;99985.03;;;20.49;52.05
24045;BME280;26257;49.442;8.422;2023-03-22T11:09:09;99978.25;;;20.85;52.11
24045;BME280;26257;49.442;8.422;2023-03-22T11:11:51;99971.81;;;22.36;48.04
24045;BME280;26257;49.442;8.422;2023-03-22T11:14:34;99968.66;;;21.66;48.73
24045;BME280;26257;49.442;8.422;2023-03-22T11:17:18;99973.06;;;21.67;48.21
24045;BME280;26257;49.442;8.422;2023-03-22T11:20:14;99963.41;;;21.63;48.76
24045;BME280;26257;49.442;8.422;2023-03-22T11:22:42;99955.84;;;23.08;46.13
24045;BME280;26257;49.442;8.422;2023-03-22T11:25:27;99955.81;;;22.91;45.22
24045;BME280;26257;49.442;8.422;2023-03-22T11:28:17;99958.91;;;23.19;44.87
24045;BME280;26257;49.442;8.422;2023-03-22T11:31:05;99957.94;;;22.65;43.67
24045;BME280;26257;49.442;8.422;2023-03-22T11:33:31;99953.13;;;22.91;42.78
24045;BME280;26257;49.442;8.422;2023-03-22T11:36:00;99947.25;;;24.06;41.17
24045;BME280;26257;49.442;8.422;2023-03-22T11:38:35;99942.69;;;23.90;41.22
24045;BME280;26257;49.442;8.422;2023-03-22T11:41:11;99932.50;;;23.44;41.26
24045;BME280;26257;49.442;8.422;2023-03-22T11:43:40;99943.94;;;22.95;43.24
24045;BME280;26257;49.442;8.422;2023-03-22T11:46:09;99935.28;;;23.24;42.46
24045;BME280;26257;49.442;8.422;2023-03-22T11:48:39;99922.25;;;24.52;40.35
24045;BME280;26257;49.442;8.422;2023-03-22T11:51:09;99934.91;;;23.84;41.09
24045;BME280;26257;49.442;8.422;2023-03-22T11:53:38;99935.53;;;23.19;41.71
24045;BME280;26257;49.442;8.422;2023-03-22T11:56:07;99915.13;;;23.84;40.10
24045;BME280;26257;49.442;8.422;2023-03-22T12:01:03;99917.81;;;24.67;38.87
24045;BME280;26257;49.442;8.422;2023-03-22T12:03:35;99901.19;;;24.26;38.49
24045;BME280;26257;49.442;8.422;2023-03-22T12:06:04;99921.34;;;22.97;41.58
24045;BME280;26257;49.442;8.422;2023-03-22T12:08:53;99910.53;;;23.16;41.53
24045;BME280;26257;49.442;8.422;2023-03-22T12:16:47;99888.91;;;23.53;41.01
24045;BME280;26257;49.442;8.422;2023-03-22T12:22:19;99906.25;;;23.82;39.75
24045;BME280;26257;49.442;8.422;2023-03-22T12:24:45;99889.66;;;24.55;37.75
24045;BME280;26257;49.442;8.422;2023-03-22T12:27:24;99877.59;;;24.93;37.16
24045;BME280;26257;49.442;8.422;2023-03-22T12:29:56;99876.19;;;23.55;37.59
24045;BME280;26257;49.442;8.422;2023-03-22T12:32:27;99869.25;;;24.01;36.68
24045;BME280;26257;49.442;8.422;2023-03-22T12:34:53;99869.28;;;23.32;37.33
24045;BME280;26257;49.442;8.422;2023-03-22T12:37:24;99864.31;;;23.59;35.95
24045;BME280;26257;49.442;8.422;2023-03-22T12:40:19;99860.75;;;23.06;36.06
24045;BME280;26257;49.442;8.422;2023-03-22T12:42:57;99865.06;;;23.27;36.13
24045;BME280;26257;49.442;8.422;2023-03-22T12:45:27;99865.91;;;23.46;35.28
24045;BME280;26257;49.442;8.422;2023-03-22T12:48:06;99857.16;;;23.75;35.13
24045;BME280;26257;49.442;8.422;2023-03-22T12:50:47;99847.63;;;23.34;34.53
24045;BME280;26257;49.442;8.422;2023-03-22T12:53:15;99859.56;;;23.47;34.69
24045;BME280;26257;49.442;8.422;2023-03-22T12:55:43;99852.28;;;22.59;36.05
24045;BME280;26257;49.442;8.422;2023-03-22T12:58:15;99848.50;;;22.07;37.03
24045;BME280;26257;49.442;8.422;2023-03-22T13:00:53;99845.72;;;21.29;39.20
24045;BME280;26257;49.442;8.422;2023-03-22T13:03:29;99855.25;;;21.57;39.14
24045;BME280;26257;49.442;8.422;2023-03-22T13:06:05;99863.13;;;21.21;39.83
24045;BME280;26257;49.442;8.422;2023-03-22T13:14:53;99832.13;;;20.25;40.20
24045;BME280;26257;49.442;8.422;2023-03-22T13:20:19;99821.78;;;20.60;38.85
24045;BME280;26257;49.442;8.422;2023-03-22T13:25:37;99827.53;;;20.72;38.79
24045;BME280;26257;49.442;8.422;2023-03-22T13:28:25;99823.91;;;20.95;37.99
24045;BME280;26257;49.442;8.422;2023-03-22T13:30:57;99821.53;;;20.66;37.91
24045;BME280;26257;49.442;8.422;2023-03-22T13:33:24;99821.41;;;20.69;38.39
24045;BME280;26257;49.442;8.422;2023-03-22T13:38:42;99824.34;;;20.84;38.29
24045;BME280;26257;49.442;8.422;2023-03-22T13:41:25;99822.75;;;21.22;37.75
24045;BME280;26257;49.442;8.422;2023-03-22T13:43:55;99814.09;;;21.36;37.63
24045;BME280;26257;49.442;8.422;2023-03-22T13:49:51;99814.69;;;20.80;38.00
24045;BME280;26257;49.442;8.422;2023-03-22T13:51:54;99813.03;;;20.98;37.16
24045;BME280;26257;49.442;8.422;2023-03-22T13:54:26;99812.44;;;20.70;37.05
24045;BME280;26257;49.442;8.422;2023-03-22T13:56:59;99812.44;;;20.70;36.75
24045;BME280;26257;49.442;8.422;2023-03-22T13:59:32;99817.28;;;20.60;36.85
24045;BME280;26257;49.442;8.422;2023-03-22T14:02:27;99814.50;;;20.63;37.07
24045;BME280;26257;49.442;8.422;2023-03-22T14:05:14;99814.69;;;20.59;36.82
24045;BME280;26257;49.442;8.422;2023-03-22T14:07:42;99806.03;;;20.94;37.15
24045;BME280;26257;49.442;8.422;2023-03-22T14:15:22;99802.44;;;21.76;36.07
24045;BME280;26257;49.442;8.422;2023-03-22T14:20:39;99779.91;;;21.78;35.36
24045;BME280;26257;49.442;8.422;2023-03-22T14:23:14;99773.28;;;22.05;35.54
24045;BME280;26257;49.442;8.422;2023-03-22T14:25:44;99780.69;;;21.41;36.20
24045;BME280;26257;49.442;8.422;2023-03-22T14:28:18;99769.38;;;21.35;36.02
24045;BME280;26257;49.442;8.422;2023-03-22T14:30:44;99767.88;;;21.48;36.41
24045;BME280;26257;49.442;8.422;2023-03-22T14:33:18;99772.13;;;21.92;36.22
24045;BME280;26257;49.442;8.422;2023-03-22T14:35:48;99773.09;;;22.64;35.34
24045;BME280;26257;49.442;8.422;2023-03-22T14:38:20;99766.69;;;22.67;34.37
24045;BME280;26257;49.442;8.422;2023-03-22T14:40:46;99764.97;;;23.00;33.71
24045;BME280;26257;49.442;8.422;2023-03-22T14:45:41;99756.00;;;22.47;33.94
24045;BME280;26257;49.442;8.422;2023-03-22T14:48:19;99763.22;;;22.09;34.74
24045;BME280;26257;49.442;8.422;2023-03-22T14:50:49;99761.16;;;22.51;34.91
24045;BME280;26257;49.442;8.422;2023-03-22T14:53:17;99760.66;;;22.79;34.83
24045;BME280;26257;49.442;8.422;2023-03-22T14:55:46;99757.03;;;22.61;34.82
24045;BME280;26257;49.442;8.422;2023-03-22T14:58:19;99750.53;;;22.48;35.33
24045;BME280;26257;49.442;8.422;2023-03-22T15:00:53;99762.19;;;22.30;35.44
24045;BME280;26257;49.442;8.422;2023-03-22T15:03:23;99759.88;;;22.04;36.25